Time;durP1;ratioP1;P1;durP2;ratioP2;P2;SDS_P1;SDS_P2;PMS_P1;PMS_P2;Temp;Humidity;BMP_temperature;BMP_pressure;BME280_temperature;BME280_humidity;BME280_pressure;Samples;Min_cycle;Max_cycle;Signal;HPM_P1;HPM_P2
2022/11/29 00:01:21;;;;;;;82.10;24.30;;;9.10;99.90;;;;;;5073692;28;20101;-68
2022/11/29 00:03:46;;;;;;;105.80;28.48;;;9.10;99.90;;;;;;5073577;28;20055;-68
2022/11/29 00:06:14;;;;;;;101.97;25.33;;;9.10;99.90;;;;;;5073332;28;20482;-68
2022/11/29 00:08:41;;;;;;;88.05;26.20;;;9.20;99.90;;;;;;5073543;28;20052;-68
2022/11/29 00:12:11;;;;;;;85.43;25.55;;;9.10;99.90;;;;;;5073239;28;20044;-68
2022/11/29 00:14:08;;;;;;;144.88;30.30;;;9.20;99.90;;;;;;5072912;28;20051;-68
2022/11/29 00:16:33;;;;;;;122.20;28.38;;;9.10;99.90;;;;;;5073366;28;20037;-68
2022/11/29 00:18:59;;;;;;;95.38;27.00;;;9.10;99.90;;;;;;5073336;28;20040;-68
2022/11/29 00:21:25;;;;;;;118.32;28.63;;;9.10;99.90;;;;;;5074276;28;20519;-68
2022/11/29 00:23:50;;;;;;;99.57;25.20;;;9.10;99.90;;;;;;5072890;28;20484;-68
2022/11/29 00:26:16;;;;;;;118.35;27.35;;;9.10;99.90;;;;;;5072915;28;20032;-68
2022/11/29 00:28:42;;;;;;;105.60;26.65;;;9.10;99.90;;;;;;5074158;28;20113;-68
2022/11/29 00:31:20;;;;;;;86.75;26.38;;;9.10;99.90;;;;;;5072884;28;20048;-68
2022/11/29 00:33:46;;;;;;;118.55;27.75;;;9.10;99.90;;;;;;5072698;28;20054;-68
2022/11/29 00:36:12;;;;;;;121.85;29.20;;;9.10;99.90;;;;;;5072737;28;20123;-68
2022/11/29 00:38:39;;;;;;;124.53;28.55;;;9.10;99.90;;;;;;5072716;28;20082;-68
2022/11/29 00:41:05;;;;;;;112.32;26.13;;;9.10;99.90;;;;;;5072905;28;20099;-68
2022/11/29 00:43:30;;;;;;;105.85;27.85;;;9.10;99.90;;;;;;5072748;28;20056;-68
2022/11/29 00:45:56;;;;;;;130.25;28.65;;;9.10;99.90;;;;;;5071866;28;20410;-68
2022/11/29 00:48:21;;;;;;;148.23;28.77;;;9.10;99.90;;;;;;5072477;28;20044;-68
2022/11/29 00:50:47;;;;;;;93.68;25.80;;;9.10;99.90;;;;;;5072365;28;20040;-68
2022/11/29 00:53:13;;;;;;;105.57;26.73;;;9.10;99.90;;;;;;5072599;28;20040;-68
2022/11/29 00:55:38;;;;;;;145.70;28.42;;;9.10;99.90;;;;;;5072346;28;20047;-68
2022/11/29 00:58:04;;;;;;;147.75;29.05;;;9.10;99.90;;;;;;5074147;28;20047;-68
2022/11/29 01:00:29;;;;;;;122.53;29.38;;;9.10;99.90;;;;;;5072521;28;20064;-68
2022/11/29 01:02:55;;;;;;;119.45;26.48;;;9.10;99.90;;;;;;5072229;28;20131;-68
2022/11/29 01:05:20;;;;;;;117.45;25.85;;;9.10;99.90;;;;;;5072234;28;20048;-68
2022/11/29 01:07:46;;;;;;;94.05;26.00;;;9.10;99.90;;;;;;5072224;28;20047;-68
2022/11/29 01:10:12;;;;;;;101.75;25.23;;;9.10;99.90;;;;;;5072275;28;20127;-68
2022/11/29 01:12:38;;;;;;;131.93;28.08;;;9.10;99.90;;;;;;5072335;28;20501;-68
2022/11/29 01:15:06;;;;;;;139.93;31.15;;;9.10;99.90;;;;;;5072308;28;20083;-68
2022/11/29 01:17:34;;;;;;;123.47;28.60;;;9.10;99.90;;;;;;5071996;28;20063;-68
2022/11/29 01:20:00;;;;;;;105.88;26.70;;;9.10;99.90;;;;;;5072055;28;20051;-68
2022/11/29 01:22:26;;;;;;;73.82;22.58;;;9.10;99.90;;;;;;5071923;28;20040;-68
2022/11/29 01:24:51;;;;;;;80.63;24.42;;;9.10;99.90;;;;;;5072032;28;20044;-68
2022/11/29 01:27:17;;;;;;;112.60;26.70;;;9.00;99.90;;;;;;5072222;28;20078;-68
2022/11/29 01:29:42;;;;;;;104.10;26.15;;;9.00;99.90;;;;;;5072134;28;20048;-68
2022/11/29 01:32:08;;;;;;;107.03;27.80;;;9.00;99.90;;;;;;5071930;28;20040;-68
2022/11/29 01:34:33;;;;;;;77.32;24.73;;;9.00;99.90;;;;;;5072128;28;20045;-68
2022/11/29 01:36:59;;;;;;;75.63;24.20;;;9.00;99.90;;;;;;5071848;28;20468;-68
2022/11/29 01:39:25;;;;;;;77.55;24.60;;;9.00;99.90;;;;;;5071841;28;20131;-68
2022/11/29 01:41:50;;;;;;;96.68;25.25;;;9.00;99.90;;;;;;5072080;28;20101;-68
2022/11/29 01:44:16;;;;;;;72.20;23.60;;;9.00;99.90;;;;;;5071678;28;20078;-68
2022/11/29 01:46:44;;;;;;;138.10;29.33;;;9.00;99.90;;;;;;5071680;28;20052;-68
2022/11/29 01:49:17;;;;;;;98.15;25.73;;;9.00;99.90;;;;;;5071728;28;20051;-68
2022/11/29 01:51:59;;;;;;;88.57;25.35;;;9.00;99.90;;;;;;5071661;28;20527;-68
2022/11/29 01:54:26;;;;;;;84.22;25.90;;;9.00;99.90;;;;;;5072849;28;20037;-68
2022/11/29 01:56:52;;;;;;;52.78;21.00;;;9.00;99.90;;;;;;5071691;28;20041;-68
2022/11/29 01:59:21;;;;;;;91.00;26.88;;;8.90;99.90;;;;;;5075204;28;20520;-68
2022/11/29 02:01:47;;;;;;;81.82;24.02;;;8.90;99.90;;;;;;5075708;28;20417;-68
2022/11/29 02:04:13;;;;;;;93.20;25.65;;;9.00;99.90;;;;;;5076481;28;20045;-68
2022/11/29 02:06:41;;;;;;;139.77;28.88;;;8.90;99.90;;;;;;5077119;28;20037;-68
2022/11/29 02:09:20;;;;;;;142.00;28.42;;;8.90;99.90;;;;;;5075567;28;20049;-68
2022/11/29 02:11:57;;;;;;;89.15;25.40;;;8.90;99.90;;;;;;5075383;28;20036;-68
2022/11/29 02:14:32;;;;;;;89.43;26.10;;;8.80;99.90;;;;;;5075432;28;20405;-68
2022/11/29 02:17:23;;;;;;;72.43;23.45;;;8.80;99.90;;;;;;5075727;28;20036;-68
2022/11/29 02:20:10;;;;;;;71.93;23.65;;;8.80;99.90;;;;;;5075438;28;20102;-68
2022/11/29 02:22:44;;;;;;;103.82;25.05;;;8.80;99.90;;;;;;5075321;28;20044;-69
2022/11/29 02:25:36;;;;;;;101.93;26.33;;;8.80;99.90;;;;;;5075287;28;20433;-68
2022/11/29 02:28:27;;;;;;;55.60;22.33;;;8.70;99.90;;;;;;5075245;28;20048;-68
2022/11/29 02:31:42;;;;;;;85.68;25.27;;;8.80;99.90;;;;;;5075107;28;20451;-68
2022/11/29 02:34:44;;;;;;;79.53;23.25;;;8.70;99.90;;;;;;5075066;28;20105;-68
2022/11/29 02:37:48;;;;;;;66.15;21.85;;;8.70;99.90;;;;;;5075129;28;20044;-68
2022/11/29 02:40:32;;;;;;;;;;;8.70;99.90;;;;;;5045017;28;20479;-68
2022/11/29 02:43:16;;;;;;;72.03;22.40;;;8.70;99.90;;;;;;5074776;28;19922;-68
2022/11/29 02:45:55;;;;;;;68.43;22.20;;;8.70;99.90;;;;;;5074792;28;20055;-68
2022/11/29 02:48:36;;;;;;;107.22;25.15;;;8.70;99.90;;;;;;5074857;28;20036;-68
2022/11/29 02:51:21;;;;;;;80.28;23.00;;;8.70;99.90;;;;;;5058097;28;20119;-68
2022/11/29 02:54:02;;;;;;;98.43;25.42;;;8.70;99.90;;;;;;5074706;28;20041;-68
2022/11/29 02:56:42;;;;;;;127.88;28.05;;;8.80;99.90;;;;;;5074684;28;20421;-68
2022/11/29 02:59:22;;;;;;;82.45;25.35;;;8.70;99.90;;;;;;5074946;28;20063;-68
2022/11/29 03:02:10;;;;;;;111.72;27.65;;;8.70;99.90;;;;;;5074623;28;20524;-68
2022/11/29 03:05:13;;;;;;;128.52;28.15;;;8.80;99.90;;;;;;5074471;28;20447;-68
2022/11/29 03:08:12;;;;;;;124.10;27.45;;;8.70;99.90;;;;;;5074785;28;20049;-68
2022/11/29 03:11:01;;;;;;;83.55;25.60;;;8.70;99.90;;;;;;5063969;28;20044;-68
2022/11/29 03:14:05;;;;;;;49.25;20.38;;;8.70;99.90;;;;;;5073748;28;20395;-68
2022/11/29 03:16:58;;;;;;;45.75;20.00;;;8.70;99.90;;;;;;5074698;28;20036;-68
2022/11/29 03:19:27;;;;;;;;;;;8.70;99.90;;;;;;5074991;28;20050;-68
2022/11/29 03:22:05;;;;;;;75.13;21.27;;;8.60;99.90;;;;;;5074242;28;20402;-68
2022/11/29 03:24:41;;;;;;;65.03;19.95;;;8.60;99.90;;;;;;5074435;28;20087;-68
2022/11/29 03:27:13;;;;;;;68.75;20.58;;;8.60;99.90;;;;;;5074187;28;20123;-68
2022/11/29 03:29:47;;;;;;;91.57;19.43;;;8.70;99.90;;;;;;5074270;28;20150;-68
2022/11/29 03:32:21;;;;;;;95.15;19.98;;;8.60;99.90;;;;;;5074355;28;20048;-68
2022/11/29 03:35:08;;;;;;;139.70;21.52;;;8.70;99.90;;;;;;5074179;28;20036;-68
2022/11/29 03:37:49;;;;;;;167.65;21.65;;;8.70;99.90;;;;;;5073930;28;20040;-68
2022/11/29 03:40:24;;;;;;;86.60;18.42;;;8.60;99.90;;;;;;5073925;28;20044;-68
2022/11/29 03:42:59;;;;;;;120.03;18.67;;;8.60;99.90;;;;;;5073856;28;20552;-68
2022/11/29 03:45:35;;;;;;;135.25;20.83;;;8.60;99.90;;;;;;5073685;28;20044;-68
2022/11/29 03:48:19;;;;;;;90.53;19.70;;;8.60;99.90;;;;;;5074658;28;20044;-68
2022/11/29 03:50:53;;;;;;;93.97;19.98;;;8.50;99.90;;;;;;5073666;28;20475;-68
2022/11/29 03:53:46;;;;;;;62.80;16.90;;;8.40;99.90;;;;;;5073908;28;20051;-68
2022/11/29 03:56:26;;;;;;;111.20;20.93;;;8.50;99.90;;;;;;5073662;28;20120;-68
2022/11/29 03:59:24;;;;;;;64.18;17.67;;;8.40;99.90;;;;;;5073590;28;20620;-68
2022/11/29 04:02:18;;;;;;;65.82;18.52;;;8.50;99.90;;;;;;5073758;28;20048;-68
2022/11/29 04:05:08;;;;;;;124.47;19.90;;;8.40;99.90;;;;;;5073348;28;20055;-68
2022/11/29 04:08:02;;;;;;;165.82;22.05;;;8.40;99.90;;;;;;5074910;28;20048;-68
2022/11/29 04:10:55;;;;;;;223.68;22.50;;;8.40;99.90;;;;;;5073273;28;20409;-68
2022/11/29 04:13:42;;;;;;;161.70;21.45;;;8.40;99.90;;;;;;5073179;28;20040;-68
2022/11/29 04:16:26;;;;;;;191.27;21.42;;;8.30;99.90;;;;;;5073194;28;20081;-68
2022/11/29 04:19:29;;;;;;;131.63;20.33;;;8.30;99.90;;;;;;5073185;28;20040;-68
2022/11/29 04:22:03;;;;;;;108.28;18.20;;;8.30;99.90;;;;;;5072492;28;20052;-68
2022/11/29 04:24:50;;;;;;;159.55;20.23;;;8.30;99.90;;;;;;5073217;28;20041;-68
2022/11/29 04:27:36;;;;;;;166.40;19.67;;;8.30;99.90;;;;;;5072990;28;20041;-68
2022/11/29 04:30:17;;;;;;;110.07;19.42;;;8.30;99.90;;;;;;5073144;28;20080;-68
2022/11/29 04:33:05;;;;;;;146.63;20.33;;;8.30;99.90;;;;;;5073015;28;20536;-68
2022/11/29 04:35:54;;;;;;;79.72;18.52;;;8.30;99.90;;;;;;5072876;28;20037;-68
2022/11/29 04:39:00;;;;;;;137.93;20.23;;;8.20;99.90;;;;;;5072801;28;20044;-68
2022/11/29 04:42:01;;;;;;;259.05;22.85;;;8.30;99.90;;;;;;5059487;28;20052;-68
2022/11/29 04:45:05;;;;;;;90.97;19.08;;;8.20;99.90;;;;;;5072241;28;20505;-68
2022/11/29 04:48:08;;;;;;;109.93;17.80;;;8.30;99.90;;;;;;5072577;28;20051;-68
2022/11/29 04:50:58;;;;;;;135.73;18.53;;;8.30;99.90;;;;;;5072644;28;20051;-68
2022/11/29 04:53:31;;;;;;;124.22;19.38;;;8.30;99.90;;;;;;5072311;28;20432;-68
2022/11/29 04:56:16;;;;;;;;;;;8.20;99.90;;;;;;5072936;28;20065;-68
2022/11/29 04:58:54;;;;;;;133.40;17.45;;;8.20;99.90;;;;;;5072620;28;19938;-68
2022/11/29 05:01:46;;;;;;;105.72;17.02;;;8.20;99.90;;;;;;5072336;28;20047;-68
2022/11/29 05:04:30;;;;;;;195.80;19.80;;;8.20;99.90;;;;;;5072510;28;20392;-68
2022/11/29 05:07:17;;;;;;;160.32;19.48;;;8.20;99.90;;;;;;5055564;28;20045;-68
2022/11/29 05:09:46;;;;;;;326.80;24.73;;;8.20;99.90;;;;;;5072498;28;20121;-68
2022/11/29 05:12:22;;;;;;;140.60;17.17;;;8.20;99.90;;;;;;5072155;28;20480;-68
2022/11/29 05:14:53;;;;;;;191.18;19.73;;;8.20;99.90;;;;;;5072359;28;20052;-68
2022/11/29 05:17:54;;;;;;;130.93;18.73;;;8.10;99.90;;;;;;5072420;28;20103;-68
2022/11/29 05:20:34;;;;;;;207.70;19.10;;;8.20;99.90;;;;;;5072108;28;20048;-68
2022/11/29 05:23:18;;;;;;;106.65;17.15;;;8.20;99.90;;;;;;5071963;28;20055;-68
2022/11/29 05:25:59;;;;;;;116.13;16.88;;;8.10;99.90;;;;;;5072071;28;20048;-68
2022/11/29 05:28:34;;;;;;;300.35;22.23;;;8.10;99.90;;;;;;5072019;28;20465;-68
2022/11/29 05:31:15;;;;;;;273.80;21.23;;;8.20;99.90;;;;;;5071899;28;20529;-68
2022/11/29 05:33:43;;;;;;;133.75;17.15;;;8.10;99.90;;;;;;5072137;28;20059;-68
2022/11/29 05:36:26;;;;;;;231.23;19.73;;;8.10;99.90;;;;;;5071896;28;20401;-68
2022/11/29 05:39:08;;;;;;;200.75;19.10;;;8.20;99.90;;;;;;5071920;28;20386;-68
2022/11/29 05:42:07;;;;;;;116.00;16.65;;;8.20;99.90;;;;;;5072157;28;20067;-68
2022/11/29 05:44:39;;;;;;;215.07;19.38;;;8.20;99.90;;;;;;5071779;28;20052;-68
2022/11/29 05:47:08;;;;;;;266.08;21.02;;;8.10;99.90;;;;;;5072257;28;20044;-68
2022/11/29 05:50:14;;;;;;;264.60;21.17;;;8.10;99.90;;;;;;5071743;28;20076;-68
2022/11/29 05:53:32;;;;;;;221.90;19.85;;;8.20;99.90;;;;;;5071983;28;20493;-68
2022/11/29 05:56:16;;;;;;;260.08;18.73;;;8.10;99.90;;;;;;5058608;28;20055;-68
2022/11/29 05:59:08;;;;;;;200.60;18.15;;;8.10;99.90;;;;;;5071975;28;20083;-68
2022/11/29 06:01:38;;;;;;;211.05;17.63;;;8.10;99.90;;;;;;5071686;28;20119;-68
2022/11/29 06:04:28;;;;;;;307.85;22.13;;;8.10;99.90;;;;;;5071923;28;20129;-68
2022/11/29 06:07:23;;;;;;;210.73;20.15;;;8.10;99.90;;;;;;5071612;28;20059;-68
2022/11/29 06:09:58;;;;;;;283.17;21.40;;;8.10;99.90;;;;;;5070844;28;20126;-68
2022/11/29 06:12:25;;;;;;;249.80;23.40;;;8.10;99.90;;;;;;5072793;28;20094;-68
2022/11/29 06:15:14;;;;;;;236.38;22.45;;;8.10;99.90;;;;;;5071402;28;20032;-68
2022/11/29 06:18:01;;;;;;;175.43;18.52;;;8.10;99.90;;;;;;5071481;28;20401;-68
2022/11/29 06:20:42;;;;;;;166.95;19.15;;;8.10;99.90;;;;;;5071501;28;20150;-68
2022/11/29 06:23:30;;;;;;;234.82;22.60;;;8.10;99.90;;;;;;5071376;28;20562;-68
2022/11/29 06:26:44;;;;;;;273.35;24.20;;;8.10;99.90;;;;;;5071433;28;20049;-68
2022/11/29 06:29:35;;;;;;;242.75;22.67;;;8.10;99.90;;;;;;5040344;28;20091;-68
2022/11/29 06:32:32;;;;;;;236.57;23.60;;;8.00;99.90;;;;;;5071327;28;20045;-68
2022/11/29 06:35:10;;;;;;;125.63;17.38;;;8.00;99.90;;;;;;5071615;28;20048;-68
2022/11/29 06:37:40;;;;;;;247.15;22.40;;;8.10;99.90;;;;;;5071261;28;20044;-68
2022/11/29 06:40:10;;;;;;;153.73;19.85;;;8.00;99.90;;;;;;5071318;28;20066;-68
2022/11/29 06:42:35;;;;;;;139.68;20.40;;;8.10;99.90;;;;;;5071158;28;20433;-68
2022/11/29 06:45:01;;;;;;;158.30;19.83;;;8.00;99.90;;;;;;5073829;28;20078;-68
2022/11/29 06:47:40;;;;;;;108.28;16.75;;;8.00;99.90;;;;;;5074955;28;20072;-68
2022/11/29 06:50:28;;;;;;;121.32;17.45;;;8.00;99.90;;;;;;5074773;28;20041;-68
2022/11/29 06:53:21;;;;;;;233.98;23.55;;;8.10;99.90;;;;;;5074728;28;20055;-68
2022/11/29 06:56:14;;;;;;;132.05;19.80;;;8.10;99.90;;;;;;5074786;28;20040;-68
2022/11/29 06:58:48;;;;;;;;;;;8.00;99.90;;;;;;5075092;28;20098;-68
2022/11/29 07:01:48;;;;;;;102.43;17.10;;;8.00;99.90;;;;;;5074744;28;20011;-68
2022/11/29 07:04:23;;;;;;;152.13;20.52;;;8.00;99.90;;;;;;5074530;28;20123;-68
2022/11/29 07:06:48;;;;;;;155.50;21.63;;;8.00;99.90;;;;;;5074780;28;20516;-68
2022/11/29 07:09:17;;;;;;;72.55;16.85;;;8.00;99.90;;;;;;5074516;28;20044;-68
2022/11/29 07:11:45;;;;;;;77.75;17.30;;;8.00;99.90;;;;;;5074387;28;20508;-68
2022/11/29 07:14:11;;;;;;;93.15;16.90;;;8.10;99.90;;;;;;5074275;28;20037;-68
2022/11/29 07:16:39;;;;;;;130.63;20.13;;;8.10;99.90;;;;;;5057670;28;20089;-68
2022/11/29 07:19:29;;;;;;;97.97;18.73;;;8.10;99.90;;;;;;5074304;28;20040;-68
2022/11/29 07:22:15;;;;;;;68.53;17.08;;;8.10;99.90;;;;;;5074314;28;20079;-68
2022/11/29 07:24:47;;;;;;;70.63;15.98;;;8.10;99.90;;;;;;5074198;28;20044;-68
2022/11/29 07:27:32;;;;;;;70.40;17.48;;;8.10;99.90;;;;;;5074248;28;20044;-68
2022/11/29 07:30:18;;;;;;;123.28;20.23;;;8.10;99.90;;;;;;5074069;28;20520;-68
2022/11/29 07:33:04;;;;;;;78.07;16.75;;;8.00;99.90;;;;;;5074063;28;20531;-68
2022/11/29 07:36:02;;;;;;;78.88;18.50;;;8.10;99.90;;;;;;5074062;28;20036;-68
2022/11/29 07:38:52;;;;;;;60.97;16.90;;;8.10;99.90;;;;;;5069726;28;20048;-68
2022/11/29 07:41:43;;;;;;;79.88;16.52;;;8.00;99.90;;;;;;5074203;28;20551;-68
2022/11/29 07:44:24;;;;;;;77.82;17.10;;;8.00;99.90;;;;;;5073799;28;20048;-68
2022/11/29 07:46:49;;;;;;;97.72;17.98;;;8.00;99.90;;;;;;5073710;28;20433;-68
2022/11/29 07:49:15;;;;;;;77.63;17.58;;;8.00;99.90;;;;;;5073748;28;20044;-68
2022/11/29 07:51:40;;;;;;;101.15;20.00;;;8.00;99.90;;;;;;5073629;28;20048;-68
2022/11/29 07:54:06;;;;;;;56.55;16.33;;;8.00;99.90;;;;;;5073848;28;20032;-68
2022/11/29 07:56:32;;;;;;;66.57;17.10;;;8.10;99.90;;;;;;5073829;28;20044;-68
2022/11/29 07:58:57;;;;;;;83.95;19.92;;;8.00;99.90;;;;;;5073621;28;20040;-68
2022/11/29 08:01:23;;;;;;;157.68;22.25;;;8.00;99.90;;;;;;5073530;28;20055;-68
2022/11/29 08:03:48;;;;;;;97.70;20.05;;;8.00;99.90;;;;;;5073437;28;20051;-68
2022/11/29 08:06:14;;;;;;;57.53;17.25;;;8.00;99.90;;;;;;5073376;28;20047;-68
2022/11/29 08:08:39;;;;;;;58.60;17.35;;;8.10;99.90;;;;;;5073642;28;20071;-68
2022/11/29 08:11:12;;;;;;;77.53;18.35;;;8.00;99.90;;;;;;5073478;28;20040;-68
2022/11/29 08:13:37;;;;;;;45.23;14.67;;;8.00;99.90;;;;;;5073223;28;20040;-68
2022/11/29 08:16:03;;;;;;;76.88;17.38;;;8.00;99.90;;;;;;5073422;28;20040;-68
2022/11/29 08:18:28;;;;;;;67.80;16.77;;;8.10;99.90;;;;;;5073419;28;20080;-68
2022/11/29 08:20:54;;;;;;;47.58;15.60;;;8.00;99.90;;;;;;5073350;28;20048;-68
2022/11/29 08:23:20;;;;;;;60.95;15.95;;;8.10;99.90;;;;;;5073229;28;20045;-68
2022/11/29 08:25:45;;;;;;;73.30;17.42;;;8.00;99.90;;;;;;5073011;28;20048;-68
2022/11/29 08:28:12;;;;;;;27.60;14.20;;;8.00;99.90;;;;;;5073228;28;20044;-68
2022/11/29 08:30:38;;;;;;;59.88;16.88;;;8.00;99.90;;;;;;5072816;28;20044;-68
2022/11/29 08:33:03;;;;;;;50.50;16.67;;;8.00;99.90;;;;;;5072795;28;20134;-68
2022/11/29 08:35:29;;;;;;;34.92;15.43;;;8.00;99.90;;;;;;5073049;28;20079;-68
2022/11/29 08:37:55;;;;;;;46.03;15.70;;;8.00;99.90;;;;;;5073075;28;20036;-68
2022/11/29 08:40:20;;;;;;;31.95;16.15;;;8.00;99.90;;;;;;5072726;28;20090;-68
2022/11/29 08:42:46;;;;;;;41.40;15.95;;;8.00;99.90;;;;;;5072866;28;20048;-69
2022/11/29 08:45:12;;;;;;;43.65;16.42;;;8.00;99.90;;;;;;5072547;28;20056;-68
2022/11/29 08:47:39;;;;;;;29.50;14.60;;;8.10;99.90;;;;;;5072940;28;20051;-68
2022/11/29 08:50:11;;;;;;;49.90;18.20;;;8.10;99.90;;;;;;5072679;28;20100;-68
2022/11/29 08:55:25;;;;;;;29.35;15.07;;;8.00;99.90;;;;;;5072494;28;19917;-69
2022/11/29 08:57:51;;;;;;;31.75;14.75;;;8.00;99.90;;;;;;5072677;28;20044;-68
2022/11/29 09:00:20;;;;;;;26.98;14.02;;;8.10;99.90;;;;;;5072367;28;20040;-68
2022/11/29 09:02:45;;;;;;;31.13;14.95;;;8.10;99.90;;;;;;5072220;28;20493;-68
2022/11/29 09:05:11;;;;;;;30.63;14.85;;;8.10;99.90;;;;;;5072293;28;20048;-68
2022/11/29 09:07:37;;;;;;;26.63;13.60;;;8.10;99.90;;;;;;5072067;28;20098;-68
2022/11/29 09:10:07;;;;;;;28.30;14.55;;;8.10;99.90;;;;;;5072399;28;20059;-68
2022/11/29 09:12:34;;;;;;;29.27;15.00;;;8.20;99.90;;;;;;5072094;28;20040;-68
2022/11/29 09:15:00;;;;;;;30.73;16.20;;;8.20;99.90;;;;;;5072404;28;20040;-69
2022/11/29 09:17:26;;;;;;;30.75;13.88;;;8.20;99.90;;;;;;5072131;28;20401;-69
2022/11/29 09:19:51;;;;;;;23.73;13.35;;;8.20;99.90;;;;;;5072262;28;20032;-69
2022/11/29 09:22:17;;;;;;;31.02;13.63;;;8.20;99.90;;;;;;5072334;28;20051;-69
2022/11/29 09:24:43;;;;;;;30.50;14.23;;;8.20;99.90;;;;;;5071971;28;20170;-69
2022/11/29 09:27:08;;;;;;;21.42;12.48;;;8.30;99.90;;;;;;5072014;28;20055;-69
2022/11/29 09:29:34;;;;;;;24.85;12.68;;;8.30;99.90;;;;;;5072013;28;20055;-69
2022/11/29 09:31:59;;;;;;;24.50;13.98;;;8.30;99.90;;;;;;5071892;28;20048;-69
2022/11/29 09:34:25;;;;;;;31.90;13.40;;;8.30;99.90;;;;;;5073376;28;20039;-69
2022/11/29 09:36:51;;;;;;;21.35;11.65;;;8.40;99.90;;;;;;5073130;28;20098;-69
2022/11/29 09:39:16;;;;;;;23.23;11.07;;;8.40;99.90;;;;;;5073435;28;20114;-69
2022/11/29 09:42:32;;;;;;;22.67;11.88;;;8.40;99.90;;;;;;5071862;28;20072;-69
2022/11/29 09:45:01;;;;;;;24.08;12.65;;;8.50;99.90;;;;;;5071660;28;20044;-69
2022/11/29 09:47:58;;;;;;;22.48;12.00;;;8.40;99.90;;;;;;5072058;28;20048;-69
2022/11/29 09:50:42;;;;;;;22.30;11.35;;;8.50;99.90;;;;;;5071651;28;20094;-69
2022/11/29 09:53:29;;;;;;;26.40;12.55;;;8.60;99.90;;;;;;5071723;28;20048;-69
2022/11/29 09:56:19;;;;;;;21.92;11.75;;;8.50;99.90;;;;;;5071752;28;20040;-73
2022/11/29 09:58:59;;;;;;;28.15;12.07;;;8.60;99.90;;;;;;5071720;28;20047;-68
2022/11/29 10:01:45;;;;;;;20.77;11.25;;;8.60;99.90;;;;;;5071707;28;20120;-68
2022/11/29 10:04:18;;;;;;;22.85;11.13;;;8.70;99.90;;;;;;5071886;28;20045;-68
2022/11/29 10:07:14;;;;;;;21.83;11.20;;;8.70;99.90;;;;;;5071679;28;20041;-68
2022/11/29 10:09:55;;;;;;;26.30;11.38;;;8.70;99.90;;;;;;5069362;28;20052;-68
2022/11/29 10:12:43;;;;;;;20.42;10.65;;;8.80;99.90;;;;;;5072118;28;20055;-69
2022/11/29 10:15:20;;;;;;;22.10;11.50;;;8.70;99.90;;;;;;5071966;28;20093;-69
2022/11/29 10:17:52;;;;;;;20.23;10.80;;;8.70;99.90;;;;;;5071546;28;20041;-69
2022/11/29 10:20:24;;;;;;;25.48;11.40;;;8.70;99.90;;;;;;5074926;28;20086;-68
2022/11/29 10:22:58;;;;;;;23.13;10.40;;;8.70;99.90;;;;;;5075481;28;20036;-69
2022/11/29 10:25:46;;;;;;;16.27;9.50;;;8.70;99.90;;;;;;5075367;28;20051;-69
2022/11/29 10:28:24;;;;;;;18.40;10.43;;;8.70;99.90;;;;;;5075240;28;20174;-69
2022/11/29 10:30:53;;;;;;;25.05;11.10;;;8.70;99.90;;;;;;5075260;28;20052;-69
2022/11/29 10:33:25;;;;;;;22.60;10.70;;;8.70;99.90;;;;;;5075346;28;20118;-69
2022/11/29 10:35:56;;;;;;;19.48;10.63;;;8.70;99.90;;;;;;5075470;28;20045;-69
2022/11/29 10:38:23;;;;;;;18.65;10.27;;;8.70;99.90;;;;;;5075366;28;20044;-69
2022/11/29 10:40:55;;;;;;;20.10;9.88;;;8.70;99.90;;;;;;5075051;28;20048;-69
2022/11/29 10:43:20;;;;;;;22.13;9.70;;;8.70;99.90;;;;;;5074976;28;20090;-69
2022/11/29 10:45:54;;;;;;;18.52;9.27;;;8.70;99.90;;;;;;5074814;28;20046;-69
2022/11/29 10:48:23;;;;;;;18.85;8.68;;;8.70;99.90;;;;;;5075201;28;20040;-69
2022/11/29 10:50:51;;;;;;;22.80;10.00;;;8.70;99.90;;;;;;5074814;28;20041;-69
2022/11/29 10:53:21;;;;;;;19.23;9.18;;;8.70;99.90;;;;;;5075000;28;20409;-69
2022/11/29 10:55:58;;;;;;;18.00;8.52;;;8.80;99.90;;;;;;5074738;28;20562;-69
2022/11/29 10:58:27;;;;;;;17.52;7.95;;;8.80;99.90;;;;;;5074994;28;20041;-69
2022/11/29 11:01:07;;;;;;;19.45;8.20;;;8.80;99.90;;;;;;5076159;28;20040;-69
2022/11/29 11:03:49;;;;;;;16.52;7.65;;;8.90;99.90;;;;;;5074594;28;20041;-69
2022/11/29 11:06:18;;;;;;;19.60;8.40;;;8.90;99.90;;;;;;5076181;28;20050;-69
2022/11/29 11:08:51;;;;;;;22.58;8.13;;;8.90;99.90;;;;;;5075752;28;20452;-69
2022/11/29 11:11:32;;;;;;;18.55;7.38;;;8.90;99.90;;;;;;5074477;28;20054;-69
2022/11/29 11:13:59;;;;;;;20.95;7.78;;;9.00;99.90;;;;;;5074385;28;20041;-69
2022/11/29 11:16:25;;;;;;;17.45;7.20;;;9.00;99.90;;;;;;5074409;28;20037;-69
2022/11/29 11:18:51;;;;;;;17.08;7.30;;;9.00;99.90;;;;;;5074398;28;20045;-69
2022/11/29 11:21:19;;;;;;;22.45;8.40;;;9.00;99.90;;;;;;5074303;28;20044;-69
2022/11/29 11:23:52;;;;;;;20.58;7.93;;;9.00;99.90;;;;;;5074191;28;20119;-69
2022/11/29 11:26:18;;;;;;;;;;;9.00;99.90;;;;;;5074668;28;20489;-69
2022/11/29 11:29:04;;;;;;;18.60;7.47;;;9.00;99.90;;;;;;5074168;28;19927;-69
2022/11/29 11:31:37;;;;;;;19.63;7.55;;;9.10;99.90;;;;;;5073793;28;20083;-69
2022/11/29 11:34:29;;;;;;;18.35;7.78;;;9.10;99.90;;;;;;5074058;28;20405;-69
2022/11/29 11:37:13;;;;;;;20.95;8.02;;;9.20;99.90;;;;;;5074032;28;20409;-69
2022/11/29 11:39:39;;;;;;;21.63;8.57;;;9.20;99.90;;;;;;5073980;28;20040;-71
2022/11/29 11:44:52;;;;;;;20.05;7.65;;;9.20;99.90;;;;;;5073759;28;20052;-68
2022/11/29 11:47:20;;;;;;;24.77;8.13;;;9.20;99.90;;;;;;5073828;28;20048;-67
2022/11/29 11:50:15;;;;;;;28.63;8.40;;;9.30;99.90;;;;;;5073766;28;20048;-67
2022/11/29 11:53:22;;;;;;;20.92;8.40;;;9.30;99.90;;;;;;5065219;28;20052;-68
2022/11/29 11:56:00;;;;;;;25.27;8.50;;;9.30;99.90;;;;;;5036457;28;20127;-68
2022/11/29 11:58:32;;;;;;;26.30;8.45;;;9.30;99.90;;;;;;5036336;28;20045;-68
2022/11/29 12:01:26;;;;;;;24.03;8.83;;;9.30;99.90;;;;;;5036294;28;20053;-68
2022/11/29 12:04:06;;;;;;;18.58;8.73;;;9.30;99.90;;;;;;5035952;28;20329;-68
2022/11/29 12:06:41;;;;;;;23.23;8.13;;;9.30;99.90;;;;;;5035995;28;20083;-68
2022/11/29 12:09:18;;;;;;;22.35;8.40;;;9.30;99.90;;;;;;5036119;28;20037;-68
2022/11/29 12:12:24;;;;;;;23.85;9.75;;;9.30;99.90;;;;;;5035844;28;20087;-68
2022/11/29 12:14:58;;;;;;;28.80;8.65;;;9.40;99.90;;;;;;5035711;28;20480;-68
2022/11/29 12:17:31;;;;;;;25.77;9.52;;;9.40;99.90;;;;;;5035704;28;20045;-68
2022/11/29 12:20:14;;;;;;;22.37;8.70;;;9.40;99.90;;;;;;5035812;28;20095;-67
2022/11/29 12:23:03;;;;;;;25.38;9.00;;;9.40;99.90;;;;;;5035891;28;20414;-67
2022/11/29 12:25:33;;;;;;;25.85;9.18;;;9.50;99.90;;;;;;5008792;28;20053;-67
2022/11/29 12:27:59;;;;;;;23.40;8.88;;;9.40;99.90;;;;;;5074855;28;20050;-68
2022/11/29 12:30:25;;;;;;;29.13;9.85;;;9.40;99.90;;;;;;5073145;28;20404;-67
2022/11/29 12:33:16;;;;;;;26.02;9.68;;;9.40;99.90;;;;;;5072822;28;20086;-68
2022/11/29 12:36:08;;;;;;;26.45;9.98;;;9.50;99.90;;;;;;5073159;28;20453;-68
2022/11/29 12:38:47;;;;;;;31.48;10.25;;;9.50;99.90;;;;;;5057469;28;20049;-68
2022/11/29 12:41:39;;;;;;;27.45;9.70;;;9.50;99.90;;;;;;5072049;28;20047;-68
2022/11/29 12:44:21;;;;;;;25.92;10.82;;;9.50;99.90;;;;;;5072690;28;20127;-69
2022/11/29 12:47:14;;;;;;;26.00;10.32;;;9.50;99.90;;;;;;5072555;28;20044;-69
2022/11/29 12:49:50;;;;;;;;;;;9.50;99.90;;;;;;5073358;28;20058;-68
2022/11/29 12:52:33;;;;;;;26.95;10.60;;;9.50;99.90;;;;;;5072507;28;19920;-68
2022/11/29 12:55:16;;;;;;;23.40;9.27;;;9.50;99.90;;;;;;5072464;28;20383;-68
2022/11/29 12:58:09;;;;;;;26.75;10.15;;;9.50;99.90;;;;;;5072792;28;20048;-69
2022/11/29 13:00:50;;;;;;;27.70;10.75;;;9.50;99.90;;;;;;5072438;28;20389;-69
2022/11/29 13:03:30;;;;;;;25.58;10.88;;;9.50;99.90;;;;;;5072285;28;20048;-69
2022/11/29 13:06:13;;;;;;;29.45;10.50;;;9.50;99.90;;;;;;5072520;28;20177;-69
2022/11/29 13:08:57;;;;;;;;;;;9.60;99.90;;;;;;5072678;28;20056;-69
2022/11/29 13:11:36;;;;;;;22.73;10.63;;;9.60;99.90;;;;;;5072206;28;19924;-69
2022/11/29 13:14:20;;;;;;;27.30;11.10;;;9.60;99.90;;;;;;5072134;28;20051;-69
2022/11/29 13:16:56;;;;;;;24.88;9.48;;;9.60;99.90;;;;;;5072169;28;20546;-69
2022/11/29 13:19:40;;;;;;;29.95;11.02;;;9.70;99.90;;;;;;5072417;28;20093;-69
2022/11/29 13:22:24;;;;;;;22.88;10.25;;;9.70;99.90;;;;;;5072372;28;20066;-69
2022/11/29 13:24:55;;;;;;;26.55;10.80;;;9.70;99.90;;;;;;5072023;28;20044;-68
2022/11/29 13:27:27;;;;;;;19.83;10.70;;;9.70;99.90;;;;;;5072073;28;20040;-68
2022/11/29 13:29:54;;;;;;;22.30;10.48;;;9.80;99.90;;;;;;5072044;28;20055;-68
2022/11/29 13:32:51;;;;;;;24.15;11.15;;;9.80;99.90;;;;;;5071866;28;20425;-68
2022/11/29 13:35:35;;;;;;;22.90;10.27;;;9.80;99.90;;;;;;5045844;28;20044;-68